sensor_id;sensor_type;location;lat;lon;timestamp;P1;durP1;ratioP1;P2;durP2;ratioP2
32639;SDS011;19049;52.524;11.468;2022-08-21T00:02:18;1.87;;;1.23;;
32639;SDS011;19049;52.524;11.468;2022-08-21T00:04:47;1.63;;;1.20;;
32639;SDS011;19049;52.524;11.468;2022-08-21T00:07:14;1.40;;;1.30;;
32639;SDS011;19049;52.524;11.468;2022-08-21T00:09:40;1.87;;;1.33;;
32639;SDS011;19049;52.524;11.468;2022-08-21T00:12:06;1.43;;;1.10;;
32639;SDS011;19049;52.524;11.468;2022-08-21T00:14:32;2.40;;;1.40;;
32639;SDS011;19049;52.524;11.468;2022-08-21T00:16:59;2.20;;;1.47;;
32639;SDS011;19049;52.524;11.468;2022-08-21T00:19:25;1.60;;;1.20;;
32639;SDS011;19049;52.524;11.468;2022-08-21T00:21:52;1.97;;;1.60;;
32639;SDS011;19049;52.524;11.468;2022-08-21T00:24:19;2.00;;;1.20;;
32639;SDS011;19049;52.524;11.468;2022-08-21T00:26:46;1.77;;;1.20;;
32639;SDS011;19049;52.524;11.468;2022-08-21T00:29:12;2.40;;;1.53;;
32639;SDS011;19049;52.524;11.468;2022-08-21T00:31:38;1.67;;;1.10;;
32639;SDS011;19049;52.524;11.468;2022-08-21T00:34:05;1.10;;;1.00;;
32639;SDS011;19049;52.524;11.468;2022-08-21T00:36:32;1.63;;;1.10;;
32639;SDS011;19049;52.524;11.468;2022-08-21T00:38:58;1.20;;;1.10;;
32639;SDS011;19049;52.524;11.468;2022-08-21T00:41:24;1.53;;;0.97;;
32639;SDS011;19049;52.524;11.468;2022-08-21T00:43:49;1.10;;;1.00;;
32639;SDS011;19049;52.524;11.468;2022-08-21T00:46:16;2.73;;;1.07;;
32639;SDS011;19049;52.524;11.468;2022-08-21T00:48:41;2.77;;;1.27;;
32639;SDS011;19049;52.524;11.468;2022-08-21T00:51:08;1.63;;;1.20;;
32639;SDS011;19049;52.524;11.468;2022-08-21T00:53:48;1.57;;;1.00;;
32639;SDS011;19049;52.524;11.468;2022-08-21T00:56:26;1.40;;;1.30;;
32639;SDS011;19049;52.524;11.468;2022-08-21T00:58:52;1.40;;;1.13;;
32639;SDS011;19049;52.524;11.468;2022-08-21T01:01:20;1.37;;;1.27;;
32639;SDS011;19049;52.524;11.468;2022-08-21T01:03:46;1.73;;;1.10;;
32639;SDS011;19049;52.524;11.468;2022-08-21T01:06:12;1.20;;;1.10;;
32639;SDS011;19049;52.524;11.468;2022-08-21T01:08:38;1.30;;;0.97;;
32639;SDS011;19049;52.524;11.468;2022-08-21T01:11:04;1.37;;;1.20;;
32639;SDS011;19049;52.524;11.468;2022-08-21T01:13:32;0.73;;;0.73;;
32639;SDS011;19049;52.524;11.468;2022-08-21T01:16:01;1.13;;;1.00;;
32639;SDS011;19049;52.524;11.468;2022-08-21T01:18:30;1.57;;;1.00;;
32639;SDS011;19049;52.524;11.468;2022-08-21T01:21:41;0.80;;;0.80;;
32639;SDS011;19049;52.524;11.468;2022-08-21T01:23:44;8.80;;;0.90;;
32639;SDS011;19049;52.524;11.468;2022-08-21T01:26:13;1.00;;;0.90;;
32639;SDS011;19049;52.524;11.468;2022-08-21T01:28:44;0.87;;;0.87;;
32639;SDS011;19049;52.524;11.468;2022-08-21T01:31:14;1.03;;;0.70;;
32639;SDS011;19049;52.524;11.468;2022-08-21T01:33:42;1.63;;;1.00;;
32639;SDS011;19049;52.524;11.468;2022-08-21T01:36:08;0.70;;;0.70;;
32639;SDS011;19049;52.524;11.468;2022-08-21T01:38:34;1.00;;;0.90;;
32639;SDS011;19049;52.524;11.468;2022-08-21T01:41:00;0.60;;;0.60;;
32639;SDS011;19049;52.524;11.468;2022-08-21T01:43:25;1.57;;;0.70;;
32639;SDS011;19049;52.524;11.468;2022-08-21T01:45:51;0.63;;;0.63;;
32639;SDS011;19049;52.524;11.468;2022-08-21T01:48:17;4.00;;;1.00;;
32639;SDS011;19049;52.524;11.468;2022-08-21T01:50:42;0.73;;;0.73;;
32639;SDS011;19049;52.524;11.468;2022-08-21T01:53:08;1.60;;;0.93;;
32639;SDS011;19049;52.524;11.468;2022-08-21T01:55:34;1.23;;;0.90;;
32639;SDS011;19049;52.524;11.468;2022-08-21T01:57:59;2.20;;;1.20;;
32639;SDS011;19049;52.524;11.468;2022-08-21T02:00:25;2.03;;;1.07;;
32639;SDS011;19049;52.524;11.468;2022-08-21T02:02:51;1.60;;;0.90;;
32639;SDS011;19049;52.524;11.468;2022-08-21T02:05:17;0.90;;;0.90;;
32639;SDS011;19049;52.524;11.468;2022-08-21T02:07:48;1.63;;;0.90;;
32639;SDS011;19049;52.524;11.468;2022-08-21T02:10:18;0.97;;;0.80;;
32639;SDS011;19049;52.524;11.468;2022-08-21T02:12:46;0.80;;;0.80;;
32639;SDS011;19049;52.524;11.468;2022-08-21T02:15:12;1.03;;;1.00;;
32639;SDS011;19049;52.524;11.468;2022-08-21T02:17:46;1.93;;;1.10;;
32639;SDS011;19049;52.524;11.468;2022-08-21T02:20:16;1.03;;;0.80;;
32639;SDS011;19049;52.524;11.468;2022-08-21T02:23:02;1.20;;;1.10;;
32639;SDS011;19049;52.524;11.468;2022-08-21T02:25:29;9.17;;;1.67;;
32639;SDS011;19049;52.524;11.468;2022-08-21T02:27:55;7.50;;;1.17;;
32639;SDS011;19049;52.524;11.468;2022-08-21T02:30:29;1.13;;;0.50;;
32639;SDS011;19049;52.524;11.468;2022-08-21T02:32:59;2.03;;;0.40;;
32639;SDS011;19049;52.524;11.468;2022-08-21T02:35:25;6.03;;;0.60;;
32639;SDS011;19049;52.524;11.468;2022-08-21T02:37:52;1.57;;;0.57;;
32639;SDS011;19049;52.524;11.468;2022-08-21T02:40:21;0.37;;;0.37;;
32639;SDS011;19049;52.524;11.468;2022-08-21T02:42:49;1.53;;;0.70;;
32639;SDS011;19049;52.524;11.468;2022-08-21T02:45:15;4.87;;;0.50;;
32639;SDS011;19049;52.524;11.468;2022-08-21T02:47:52;1.57;;;0.50;;
32639;SDS011;19049;52.524;11.468;2022-08-21T02:50:22;0.63;;;0.60;;
32639;SDS011;19049;52.524;11.468;2022-08-21T02:52:50;0.80;;;0.30;;
32639;SDS011;19049;52.524;11.468;2022-08-21T02:55:17;0.70;;;0.60;;
32639;SDS011;19049;52.524;11.468;2022-08-21T02:57:45;5.23;;;1.03;;
32639;SDS011;19049;52.524;11.468;2022-08-21T03:00:12;4.77;;;0.87;;
32639;SDS011;19049;52.524;11.468;2022-08-21T03:02:38;3.60;;;0.80;;
32639;SDS011;19049;52.524;11.468;2022-08-21T03:05:05;0.83;;;0.83;;
32639;SDS011;19049;52.524;11.468;2022-08-21T03:07:35;0.73;;;0.73;;
32639;SDS011;19049;52.524;11.468;2022-08-21T03:10:02;1.10;;;0.70;;
32639;SDS011;19049;52.524;11.468;2022-08-21T03:12:28;0.40;;;0.40;;
32639;SDS011;19049;52.524;11.468;2022-08-21T03:14:54;5.43;;;0.70;;
32639;SDS011;19049;52.524;11.468;2022-08-21T03:17:19;1.93;;;0.57;;
32639;SDS011;19049;52.524;11.468;2022-08-21T03:19:45;0.70;;;0.57;;
32639;SDS011;19049;52.524;11.468;2022-08-21T03:22:11;0.50;;;0.50;;
32639;SDS011;19049;52.524;11.468;2022-08-21T03:24:36;1.07;;;0.60;;
32639;SDS011;19049;52.524;11.468;2022-08-21T03:27:02;1.33;;;0.60;;
32639;SDS011;19049;52.524;11.468;2022-08-21T03:29:28;1.53;;;0.90;;
32639;SDS011;19049;52.524;11.468;2022-08-21T03:31:54;0.90;;;0.90;;
32639;SDS011;19049;52.524;11.468;2022-08-21T03:34:20;0.90;;;0.90;;
32639;SDS011;19049;52.524;11.468;2022-08-21T03:36:46;0.70;;;0.70;;
32639;SDS011;19049;52.524;11.468;2022-08-21T03:39:13;1.00;;;0.63;;
32639;SDS011;19049;52.524;11.468;2022-08-21T03:41:43;0.57;;;0.57;;
32639;SDS011;19049;52.524;11.468;2022-08-21T03:44:09;9.00;;;1.10;;
32639;SDS011;19049;52.524;11.468;2022-08-21T03:46:34;0.83;;;0.77;;
32639;SDS011;19049;52.524;11.468;2022-08-21T03:49:03;0.90;;;0.87;;
32639;SDS011;19049;52.524;11.468;2022-08-21T03:51:29;1.10;;;1.00;;
32639;SDS011;19049;52.524;11.468;2022-08-21T03:53:57;1.00;;;0.90;;
32639;SDS011;19049;52.524;11.468;2022-08-21T03:56:22;1.33;;;1.00;;
32639;SDS011;19049;52.524;11.468;2022-08-21T03:58:48;2.17;;;1.10;;
32639;SDS011;19049;52.524;11.468;2022-08-21T04:01:16;6.90;;;1.07;;
32639;SDS011;19049;52.524;11.468;2022-08-21T04:03:42;8.27;;;1.37;;
32639;SDS011;19049;52.524;11.468;2022-08-21T04:06:08;1.00;;;1.00;;
32639;SDS011;19049;52.524;11.468;2022-08-21T04:08:34;1.30;;;0.90;;
32639;SDS011;19049;52.524;11.468;2022-08-21T04:11:00;0.90;;;0.90;;
32639;SDS011;19049;52.524;11.468;2022-08-21T04:13:27;1.87;;;0.80;;
32639;SDS011;19049;52.524;11.468;2022-08-21T04:15:53;0.87;;;0.80;;
32639;SDS011;19049;52.524;11.468;2022-08-21T04:18:19;1.73;;;1.03;;
32639;SDS011;19049;52.524;11.468;2022-08-21T04:20:46;0.93;;;0.90;;
32639;SDS011;19049;52.524;11.468;2022-08-21T04:23:14;0.90;;;0.90;;
32639;SDS011;19049;52.524;11.468;2022-08-21T04:25:41;0.70;;;0.70;;
32639;SDS011;19049;52.524;11.468;2022-08-21T04:28:06;1.10;;;0.80;;
32639;SDS011;19049;52.524;11.468;2022-08-21T04:30:32;0.80;;;0.60;;
32639;SDS011;19049;52.524;11.468;2022-08-21T04:32:58;1.03;;;0.70;;
32639;SDS011;19049;52.524;11.468;2022-08-21T04:35:24;1.17;;;0.70;;
32639;SDS011;19049;52.524;11.468;2022-08-21T04:37:51;0.80;;;0.70;;
32639;SDS011;19049;52.524;11.468;2022-08-21T04:40:17;0.60;;;0.60;;
32639;SDS011;19049;52.524;11.468;2022-08-21T04:42:46;0.80;;;0.80;;
32639;SDS011;19049;52.524;11.468;2022-08-21T04:45:17;2.33;;;0.80;;
32639;SDS011;19049;52.524;11.468;2022-08-21T04:47:46;0.70;;;0.70;;
32639;SDS011;19049;52.524;11.468;2022-08-21T04:50:16;0.90;;;0.73;;
32639;SDS011;19049;52.524;11.468;2022-08-21T04:52:41;2.93;;;0.97;;
32639;SDS011;19049;52.524;11.468;2022-08-21T04:55:08;1.07;;;0.70;;
32639;SDS011;19049;52.524;11.468;2022-08-21T04:57:34;0.97;;;0.90;;
32639;SDS011;19049;52.524;11.468;2022-08-21T05:00:00;3.40;;;1.37;;
32639;SDS011;19049;52.524;11.468;2022-08-21T05:02:28;1.00;;;0.87;;
32639;SDS011;19049;52.524;11.468;2022-08-21T05:04:53;1.30;;;1.00;;
32639;SDS011;19049;52.524;11.468;2022-08-21T05:07:22;3.13;;;1.10;;
32639;SDS011;19049;52.524;11.468;2022-08-21T05:09:51;1.67;;;1.30;;
32639;SDS011;19049;52.524;11.468;2022-08-21T05:12:18;1.30;;;1.00;;
32639;SDS011;19049;52.524;11.468;2022-08-21T05:14:44;1.20;;;1.10;;
32639;SDS011;19049;52.524;11.468;2022-08-21T05:17:09;1.50;;;1.40;;
32639;SDS011;19049;52.524;11.468;2022-08-21T05:19:35;1.70;;;1.20;;
32639;SDS011;19049;52.524;11.468;2022-08-21T05:22:01;1.70;;;1.20;;
32639;SDS011;19049;52.524;11.468;2022-08-21T05:24:27;2.53;;;1.40;;
32639;SDS011;19049;52.524;11.468;2022-08-21T05:26:53;3.23;;;1.47;;
32639;SDS011;19049;52.524;11.468;2022-08-21T05:29:20;1.50;;;1.33;;
32639;SDS011;19049;52.524;11.468;2022-08-21T05:31:46;1.43;;;1.33;;
32639;SDS011;19049;52.524;11.468;2022-08-21T05:34:13;1.80;;;1.40;;
32639;SDS011;19049;52.524;11.468;2022-08-21T05:36:40;1.43;;;1.33;;
32639;SDS011;19049;52.524;11.468;2022-08-21T05:39:05;2.07;;;1.60;;
32639;SDS011;19049;52.524;11.468;2022-08-21T05:41:31;1.83;;;1.37;;
32639;SDS011;19049;52.524;11.468;2022-08-21T05:43:57;1.37;;;1.27;;
32639;SDS011;19049;52.524;11.468;2022-08-21T05:46:22;1.90;;;1.47;;
32639;SDS011;19049;52.524;11.468;2022-08-21T05:48:48;1.90;;;1.70;;
32639;SDS011;19049;52.524;11.468;2022-08-21T05:51:14;1.50;;;1.40;;
32639;SDS011;19049;52.524;11.468;2022-08-21T05:53:41;1.60;;;1.50;;
32639;SDS011;19049;52.524;11.468;2022-08-21T05:56:10;1.70;;;1.60;;
32639;SDS011;19049;52.524;11.468;2022-08-21T05:58:36;1.80;;;1.43;;
32639;SDS011;19049;52.524;11.468;2022-08-21T06:01:03;3.00;;;1.90;;
32639;SDS011;19049;52.524;11.468;2022-08-21T06:03:31;1.70;;;1.60;;
32639;SDS011;19049;52.524;11.468;2022-08-21T06:05:59;1.70;;;1.60;;
32639;SDS011;19049;52.524;11.468;2022-08-21T06:08:25;2.37;;;1.47;;
32639;SDS011;19049;52.524;11.468;2022-08-21T06:10:52;1.80;;;1.70;;
32639;SDS011;19049;52.524;11.468;2022-08-21T06:13:20;1.93;;;1.70;;
32639;SDS011;19049;52.524;11.468;2022-08-21T06:15:46;6.00;;;1.87;;
32639;SDS011;19049;52.524;11.468;2022-08-21T06:18:12;2.60;;;1.80;;
32639;SDS011;19049;52.524;11.468;2022-08-21T06:20:38;1.60;;;1.50;;
32639;SDS011;19049;52.524;11.468;2022-08-21T06:23:04;2.23;;;1.83;;
32639;SDS011;19049;52.524;11.468;2022-08-21T06:25:30;2.37;;;1.63;;
32639;SDS011;19049;52.524;11.468;2022-08-21T06:30:50;2.47;;;1.70;;
32639;SDS011;19049;52.524;11.468;2022-08-21T06:33:15;2.43;;;1.80;;
32639;SDS011;19049;52.524;11.468;2022-08-21T06:35:41;4.30;;;1.63;;
32639;SDS011;19049;52.524;11.468;2022-08-21T06:38:07;4.03;;;1.80;;
32639;SDS011;19049;52.524;11.468;2022-08-21T06:40:33;2.70;;;1.73;;
32639;SDS011;19049;52.524;11.468;2022-08-21T06:43:04;2.33;;;1.60;;
32639;SDS011;19049;52.524;11.468;2022-08-21T06:45:31;1.73;;;1.30;;
32639;SDS011;19049;52.524;11.468;2022-08-21T06:47:57;2.13;;;1.50;;
32639;SDS011;19049;52.524;11.468;2022-08-21T06:50:23;2.50;;;1.60;;
32639;SDS011;19049;52.524;11.468;2022-08-21T06:52:49;2.63;;;1.57;;
32639;SDS011;19049;52.524;11.468;2022-08-21T06:55:22;3.80;;;1.60;;
32639;SDS011;19049;52.524;11.468;2022-08-21T06:57:48;2.77;;;1.30;;
32639;SDS011;19049;52.524;11.468;2022-08-21T07:00:14;3.63;;;1.90;;
32639;SDS011;19049;52.524;11.468;2022-08-21T07:02:40;2.07;;;1.40;;
32639;SDS011;19049;52.524;11.468;2022-08-21T07:05:06;2.93;;;1.20;;
32639;SDS011;19049;52.524;11.468;2022-08-21T07:07:32;2.37;;;1.40;;
32639;SDS011;19049;52.524;11.468;2022-08-21T07:09:57;1.57;;;1.20;;
32639;SDS011;19049;52.524;11.468;2022-08-21T07:12:23;4.03;;;1.40;;
32639;SDS011;19049;52.524;11.468;2022-08-21T07:14:50;3.43;;;1.30;;
32639;SDS011;19049;52.524;11.468;2022-08-21T07:17:17;1.70;;;1.50;;
32639;SDS011;19049;52.524;11.468;2022-08-21T07:19:43;1.87;;;1.30;;
32639;SDS011;19049;52.524;11.468;2022-08-21T07:22:09;1.80;;;1.47;;
32639;SDS011;19049;52.524;11.468;2022-08-21T07:24:35;1.27;;;1.17;;
32639;SDS011;19049;52.524;11.468;2022-08-21T07:27:00;1.90;;;1.30;;
32639;SDS011;19049;52.524;11.468;2022-08-21T07:29:26;2.93;;;1.40;;
32639;SDS011;19049;52.524;11.468;2022-08-21T07:31:52;2.57;;;1.63;;
32639;SDS011;19049;52.524;11.468;2022-08-21T07:34:17;3.23;;;1.10;;
32639;SDS011;19049;52.524;11.468;2022-08-21T07:36:44;0.90;;;0.90;;
32639;SDS011;19049;52.524;11.468;2022-08-21T07:39:10;1.87;;;1.10;;
32639;SDS011;19049;52.524;11.468;2022-08-21T07:41:35;1.60;;;1.20;;
32639;SDS011;19049;52.524;11.468;2022-08-21T07:44:02;2.10;;;1.30;;
32639;SDS011;19049;52.524;11.468;2022-08-21T07:46:28;1.93;;;1.20;;
32639;SDS011;19049;52.524;11.468;2022-08-21T07:48:53;1.50;;;1.27;;
32639;SDS011;19049;52.524;11.468;2022-08-21T07:51:20;1.80;;;1.00;;
32639;SDS011;19049;52.524;11.468;2022-08-21T07:53:49;1.30;;;0.93;;
32639;SDS011;19049;52.524;11.468;2022-08-21T07:56:17;1.10;;;1.00;;
32639;SDS011;19049;52.524;11.468;2022-08-21T07:58:43;1.10;;;1.00;;
32639;SDS011;19049;52.524;11.468;2022-08-21T08:01:09;1.27;;;1.00;;
32639;SDS011;19049;52.524;11.468;2022-08-21T08:03:35;1.80;;;0.93;;
32639;SDS011;19049;52.524;11.468;2022-08-21T08:06:02;3.47;;;1.40;;
32639;SDS011;19049;52.524;11.468;2022-08-21T08:08:29;1.70;;;1.17;;
32639;SDS011;19049;52.524;11.468;2022-08-21T08:10:56;1.73;;;1.33;;
32639;SDS011;19049;52.524;11.468;2022-08-21T08:13:22;2.53;;;1.50;;
32639;SDS011;19049;52.524;11.468;2022-08-21T08:15:49;2.50;;;1.20;;
32639;SDS011;19049;52.524;11.468;2022-08-21T08:18:15;1.40;;;1.00;;
32639;SDS011;19049;52.524;11.468;2022-08-21T08:20:40;2.27;;;1.50;;
32639;SDS011;19049;52.524;11.468;2022-08-21T08:23:07;2.80;;;1.50;;
32639;SDS011;19049;52.524;11.468;2022-08-21T08:25:36;2.83;;;1.40;;
32639;SDS011;19049;52.524;11.468;2022-08-21T08:28:03;3.10;;;1.23;;
32639;SDS011;19049;52.524;11.468;2022-08-21T08:30:29;2.47;;;1.10;;
32639;SDS011;19049;52.524;11.468;2022-08-21T08:32:55;2.63;;;1.40;;
32639;SDS011;19049;52.524;11.468;2022-08-21T08:35:22;1.43;;;0.97;;
32639;SDS011;19049;52.524;11.468;2022-08-21T08:37:48;3.07;;;1.20;;
32639;SDS011;19049;52.524;11.468;2022-08-21T08:40:18;2.83;;;1.13;;
32639;SDS011;19049;52.524;11.468;2022-08-21T08:42:50;3.67;;;1.10;;
32639;SDS011;19049;52.524;11.468;2022-08-21T08:45:18;2.30;;;1.37;;
32639;SDS011;19049;52.524;11.468;2022-08-21T08:47:49;2.37;;;1.37;;
32639;SDS011;19049;52.524;11.468;2022-08-21T08:50:45;2.70;;;1.40;;
32639;SDS011;19049;52.524;11.468;2022-08-21T08:53:23;1.43;;;1.13;;
32639;SDS011;19049;52.524;11.468;2022-08-21T08:55:56;2.93;;;1.17;;
32639;SDS011;19049;52.524;11.468;2022-08-21T08:58:24;1.97;;;1.00;;
32639;SDS011;19049;52.524;11.468;2022-08-21T09:00:57;3.53;;;1.30;;
32639;SDS011;19049;52.524;11.468;2022-08-21T09:03:23;2.23;;;1.23;;
32639;SDS011;19049;52.524;11.468;2022-08-21T09:11:22;3.20;;;1.47;;
32639;SDS011;19049;52.524;11.468;2022-08-21T09:20:08;5.60;;;1.93;;
32639;SDS011;19049;52.524;11.468;2022-08-21T09:25:31;1.67;;;0.80;;
32639;SDS011;19049;52.524;11.468;2022-08-21T09:28:07;2.03;;;1.10;;
32639;SDS011;19049;52.524;11.468;2022-08-21T09:30:33;2.70;;;1.10;;
32639;SDS011;19049;52.524;11.468;2022-08-21T09:32:59;2.93;;;1.40;;
32639;SDS011;19049;52.524;11.468;2022-08-21T09:35:25;2.83;;;1.03;;
32639;SDS011;19049;52.524;11.468;2022-08-21T09:38:01;2.10;;;1.20;;
32639;SDS011;19049;52.524;11.468;2022-08-21T09:43:04;3.17;;;0.90;;
32639;SDS011;19049;52.524;11.468;2022-08-21T09:45:32;2.67;;;1.40;;
32639;SDS011;19049;52.524;11.468;2022-08-21T09:48:09;3.03;;;1.30;;
32639;SDS011;19049;52.524;11.468;2022-08-21T09:50:38;2.20;;;1.20;;
32639;SDS011;19049;52.524;11.468;2022-08-21T09:53:13;3.13;;;1.20;;
32639;SDS011;19049;52.524;11.468;2022-08-21T09:55:55;3.03;;;1.33;;
32639;SDS011;19049;52.524;11.468;2022-08-21T09:58:44;2.57;;;1.10;;
32639;SDS011;19049;52.524;11.468;2022-08-21T10:01:13;3.17;;;1.20;;
32639;SDS011;19049;52.524;11.468;2022-08-21T10:03:41;2.70;;;1.10;;
32639;SDS011;19049;52.524;11.468;2022-08-21T10:06:08;2.07;;;1.20;;
32639;SDS011;19049;52.524;11.468;2022-08-21T10:08:40;2.10;;;1.17;;
32639;SDS011;19049;52.524;11.468;2022-08-21T10:11:07;2.17;;;1.20;;
32639;SDS011;19049;52.524;11.468;2022-08-21T10:16:20;2.47;;;1.43;;
32639;SDS011;19049;52.524;11.468;2022-08-21T10:22:10;2.97;;;1.20;;
32639;SDS011;19049;52.524;11.468;2022-08-21T10:27:47;3.27;;;1.37;;
32639;SDS011;19049;52.524;11.468;2022-08-21T10:33:13;1.40;;;1.10;;
32639;SDS011;19049;52.524;11.468;2022-08-21T10:36:02;1.63;;;1.23;;
32639;SDS011;19049;52.524;11.468;2022-08-21T10:44:48;2.87;;;1.40;;
32639;SDS011;19049;52.524;11.468;2022-08-21T10:50:30;2.17;;;1.20;;
32639;SDS011;19049;52.524;11.468;2022-08-21T10:56:02;5.03;;;1.70;;
32639;SDS011;19049;52.524;11.468;2022-08-21T11:01:31;3.50;;;1.30;;
32639;SDS011;19049;52.524;11.468;2022-08-21T11:04:13;2.73;;;1.30;;
32639;SDS011;19049;52.524;11.468;2022-08-21T11:06:46;3.43;;;1.40;;
32639;SDS011;19049;52.524;11.468;2022-08-21T11:09:25;1.87;;;1.20;;
32639;SDS011;19049;52.524;11.468;2022-08-21T11:11:54;3.00;;;1.67;;
32639;SDS011;19049;52.524;11.468;2022-08-21T11:17:32;4.10;;;1.40;;
32639;SDS011;19049;52.524;11.468;2022-08-21T11:20:07;2.00;;;1.60;;
32639;SDS011;19049;52.524;11.468;2022-08-21T11:22:46;2.63;;;1.37;;
32639;SDS011;19049;52.524;11.468;2022-08-21T11:25:17;5.50;;;1.63;;
32639;SDS011;19049;52.524;11.468;2022-08-21T11:30:23;2.67;;;1.27;;
32639;SDS011;19049;52.524;11.468;2022-08-21T11:35:48;3.37;;;1.60;;
32639;SDS011;19049;52.524;11.468;2022-08-21T11:38:35;2.33;;;1.10;;
32639;SDS011;19049;52.524;11.468;2022-08-21T11:46:36;1.77;;;1.00;;
32639;SDS011;19049;52.524;11.468;2022-08-21T11:52:13;1.63;;;1.00;;
32639;SDS011;19049;52.524;11.468;2022-08-21T11:59:49;2.07;;;1.20;;
32639;SDS011;19049;52.524;11.468;2022-08-21T12:02:33;3.40;;;1.40;;
32639;SDS011;19049;52.524;11.468;2022-08-21T12:05:03;3.27;;;1.70;;
32639;SDS011;19049;52.524;11.468;2022-08-21T12:07:44;1.93;;;0.90;;
32639;SDS011;19049;52.524;11.468;2022-08-21T12:10:12;4.23;;;1.40;;
32639;SDS011;19049;52.524;11.468;2022-08-21T12:12:41;3.83;;;1.57;;
32639;SDS011;19049;52.524;11.468;2022-08-21T12:18:05;2.07;;;1.37;;
32639;SDS011;19049;52.524;11.468;2022-08-21T12:20:57;1.80;;;1.20;;
32639;SDS011;19049;52.524;11.468;2022-08-21T12:23:30;1.37;;;1.00;;
32639;SDS011;19049;52.524;11.468;2022-08-21T12:28:25;1.83;;;1.17;;
32639;SDS011;19049;52.524;11.468;2022-08-21T12:30:52;3.07;;;1.07;;
32639;SDS011;19049;52.524;11.468;2022-08-21T12:35:47;2.10;;;1.00;;
32639;SDS011;19049;52.524;11.468;2022-08-21T12:38:17;2.70;;;1.40;;
32639;SDS011;19049;52.524;11.468;2022-08-21T12:43:36;1.77;;;1.20;;
32639;SDS011;19049;52.524;11.468;2022-08-21T12:46:12;2.33;;;1.00;;
32639;SDS011;19049;52.524;11.468;2022-08-21T12:48:52;2.53;;;1.43;;
32639;SDS011;19049;52.524;11.468;2022-08-21T12:51:26;1.63;;;1.10;;
32639;SDS011;19049;52.524;11.468;2022-08-21T12:53:58;1.70;;;1.33;;
32639;SDS011;19049;52.524;11.468;2022-08-21T12:56:30;2.17;;;1.47;;
32639;SDS011;19049;52.524;11.468;2022-08-21T12:59:04;2.03;;;1.10;;
32639;SDS011;19049;52.524;11.468;2022-08-21T13:01:33;2.00;;;1.30;;
32639;SDS011;19049;52.524;11.468;2022-08-21T13:04:04;1.23;;;1.10;;
32639;SDS011;19049;52.524;11.468;2022-08-21T13:06:38;2.23;;;1.30;;
32639;SDS011;19049;52.524;11.468;2022-08-21T13:09:07;2.53;;;1.10;;
32639;SDS011;19049;52.524;11.468;2022-08-21T13:11:36;4.10;;;1.30;;
32639;SDS011;19049;52.524;11.468;2022-08-21T13:14:04;1.63;;;1.10;;
32639;SDS011;19049;52.524;11.468;2022-08-21T13:16:31;2.90;;;1.17;;
32639;SDS011;19049;52.524;11.468;2022-08-21T13:19:03;2.27;;;1.30;;
32639;SDS011;19049;52.524;11.468;2022-08-21T13:21:40;2.77;;;1.40;;
32639;SDS011;19049;52.524;11.468;2022-08-21T13:24:22;2.03;;;1.43;;
32639;SDS011;19049;52.524;11.468;2022-08-21T13:26:51;3.70;;;2.00;;
32639;SDS011;19049;52.524;11.468;2022-08-21T13:29:21;2.00;;;1.30;;
32639;SDS011;19049;52.524;11.468;2022-08-21T13:31:57;2.00;;;1.20;;
32639;SDS011;19049;52.524;11.468;2022-08-21T13:34:45;2.33;;;1.60;;
32639;SDS011;19049;52.524;11.468;2022-08-21T13:37:11;1.80;;;1.33;;
32639;SDS011;19049;52.524;11.468;2022-08-21T13:39:37;3.07;;;1.50;;
32639;SDS011;19049;52.524;11.468;2022-08-21T13:42:03;2.27;;;1.57;;
32639;SDS011;19049;52.524;11.468;2022-08-21T13:47:01;4.77;;;1.50;;
32639;SDS011;19049;52.524;11.468;2022-08-21T13:49:33;3.80;;;1.60;;
32639;SDS011;19049;52.524;11.468;2022-08-21T13:52:02;2.33;;;1.80;;
32639;SDS011;19049;52.524;11.468;2022-08-21T13:54:33;1.77;;;1.23;;
32639;SDS011;19049;52.524;11.468;2022-08-21T13:56:59;2.50;;;1.50;;
32639;SDS011;19049;52.524;11.468;2022-08-21T13:59:26;3.00;;;1.33;;
32639;SDS011;19049;52.524;11.468;2022-08-21T14:01:52;3.03;;;1.60;;
32639;SDS011;19049;52.524;11.468;2022-08-21T14:04:32;4.73;;;1.83;;
32639;SDS011;19049;52.524;11.468;2022-08-21T14:07:01;2.23;;;1.60;;
32639;SDS011;19049;52.524;11.468;2022-08-21T14:09:33;2.27;;;1.50;;
32639;SDS011;19049;52.524;11.468;2022-08-21T14:12:02;2.13;;;1.77;;
32639;SDS011;19049;52.524;11.468;2022-08-21T14:14:37;4.27;;;2.23;;
32639;SDS011;19049;52.524;11.468;2022-08-21T14:17:05;4.33;;;1.70;;
32639;SDS011;19049;52.524;11.468;2022-08-21T14:22:23;3.23;;;1.90;;
32639;SDS011;19049;52.524;11.468;2022-08-21T14:27:51;3.07;;;1.80;;
32639;SDS011;19049;52.524;11.468;2022-08-21T14:30:22;2.33;;;1.53;;
32639;SDS011;19049;52.524;11.468;2022-08-21T14:32:55;2.80;;;1.80;;
32639;SDS011;19049;52.524;11.468;2022-08-21T14:35:21;4.47;;;2.10;;
32639;SDS011;19049;52.524;11.468;2022-08-21T14:37:47;5.73;;;2.10;;
32639;SDS011;19049;52.524;11.468;2022-08-21T14:40:17;2.93;;;1.60;;
32639;SDS011;19049;52.524;11.468;2022-08-21T14:42:44;2.20;;;1.40;;
32639;SDS011;19049;52.524;11.468;2022-08-21T14:45:29;2.40;;;1.80;;
32639;SDS011;19049;52.524;11.468;2022-08-21T14:47:56;2.97;;;1.80;;
32639;SDS011;19049;52.524;11.468;2022-08-21T14:50:22;2.83;;;1.70;;
32639;SDS011;19049;52.524;11.468;2022-08-21T14:52:49;2.47;;;1.57;;
32639;SDS011;19049;52.524;11.468;2022-08-21T14:55:16;2.20;;;1.60;;
32639;SDS011;19049;52.524;11.468;2022-08-21T14:57:45;2.93;;;1.63;;
32639;SDS011;19049;52.524;11.468;2022-08-21T15:00:14;2.37;;;1.67;;
32639;SDS011;19049;52.524;11.468;2022-08-21T15:02:41;1.73;;;1.20;;
32639;SDS011;19049;52.524;11.468;2022-08-21T15:05:08;2.97;;;1.67;;
32639;SDS011;19049;52.524;11.468;2022-08-21T15:07:34;2.27;;;1.53;;
32639;SDS011;19049;52.524;11.468;2022-08-21T15:10:00;2.53;;;1.70;;
32639;SDS011;19049;52.524;11.468;2022-08-21T15:12:26;2.13;;;1.67;;
32639;SDS011;19049;52.524;11.468;2022-08-21T15:14:52;2.63;;;1.37;;
32639;SDS011;19049;52.524;11.468;2022-08-21T15:17:18;3.00;;;1.27;;
32639;SDS011;19049;52.524;11.468;2022-08-21T15:19:44;2.00;;;1.60;;
32639;SDS011;19049;52.524;11.468;2022-08-21T15:22:10;2.03;;;1.63;;
32639;SDS011;19049;52.524;11.468;2022-08-21T15:24:35;2.33;;;1.43;;
32639;SDS011;19049;52.524;11.468;2022-08-21T15:27:02;2.17;;;1.70;;
32639;SDS011;19049;52.524;11.468;2022-08-21T15:29:29;2.30;;;1.37;;
32639;SDS011;19049;52.524;11.468;2022-08-21T15:31:57;2.70;;;1.83;;
32639;SDS011;19049;52.524;11.468;2022-08-21T15:34:25;2.47;;;1.40;;
32639;SDS011;19049;52.524;11.468;2022-08-21T15:36:53;1.63;;;1.37;;
32639;SDS011;19049;52.524;11.468;2022-08-21T15:39:22;3.37;;;1.37;;
32639;SDS011;19049;52.524;11.468;2022-08-21T15:41:49;2.90;;;1.30;;
32639;SDS011;19049;52.524;11.468;2022-08-21T15:44:15;1.57;;;1.30;;
32639;SDS011;19049;52.524;11.468;2022-08-21T15:46:41;1.50;;;1.40;;
32639;SDS011;19049;52.524;11.468;2022-08-21T15:49:09;3.57;;;1.60;;
32639;SDS011;19049;52.524;11.468;2022-08-21T15:51:35;1.53;;;1.20;;
32639;SDS011;19049;52.524;11.468;2022-08-21T15:54:01;2.50;;;1.47;;
32639;SDS011;19049;52.524;11.468;2022-08-21T15:56:37;1.60;;;1.37;;
32639;SDS011;19049;52.524;11.468;2022-08-21T15:59:12;4.40;;;1.80;;
32639;SDS011;19049;52.524;11.468;2022-08-21T16:01:40;1.73;;;1.23;;
32639;SDS011;19049;52.524;11.468;2022-08-21T16:04:06;2.03;;;1.40;;
32639;SDS011;19049;52.524;11.468;2022-08-21T16:06:33;3.43;;;1.33;;
32639;SDS011;19049;52.524;11.468;2022-08-21T16:08:58;2.10;;;1.63;;
32639;SDS011;19049;52.524;11.468;2022-08-21T16:11:24;2.50;;;1.50;;